createdAt,value
2019-05-18T00:00:09.847Z,97.53
2019-05-18T00:02:38.401Z,102.47
2019-05-18T00:05:07.354Z,123.13
2019-05-18T00:07:35.984Z,99.50
2019-05-18T00:10:05.432Z,77.53
2019-05-18T00:12:33.955Z,80.23
2019-05-18T00:15:02.564Z,72.77
2019-05-18T00:17:31.127Z,72.30
2019-05-18T00:19:59.688Z,73.40
2019-05-18T00:22:28.175Z,74.50
2019-05-18T00:24:56.582Z,74.07
2019-05-18T00:27:25.124Z,107.57
2019-05-18T00:29:53.682Z,101.20
2019-05-18T00:32:22.178Z,97.77
2019-05-18T00:34:50.804Z,90.07
2019-05-18T00:37:19.384Z,76.83
2019-05-18T00:39:47.870Z,63.97
2019-05-18T00:42:16.431Z,64.73
2019-05-18T00:44:44.993Z,60.90
2019-05-18T00:47:13.472Z,61.07
2019-05-18T00:49:42.168Z,67.90
2019-05-18T00:52:10.601Z,79.73
2019-05-18T00:54:39.088Z,88.00
2019-05-18T00:57:07.645Z,79.30
2019-05-18T00:59:37.054Z,70.63
2019-05-18T01:02:05.536Z,86.60
2019-05-18T01:04:34.071Z,76.70
2019-05-18T01:07:02.635Z,74.57
2019-05-18T01:09:31.165Z,72.97
2019-05-18T01:11:59.781Z,85.30
2019-05-18T01:14:28.541Z,110.33
2019-05-18T01:16:57.038Z,96.37
2019-05-18T01:19:25.566Z,71.20
2019-05-18T01:21:53.979Z,58.63
2019-05-18T01:24:23.136Z,65.57
2019-05-18T01:26:51.599Z,60.03
2019-05-18T01:29:20.106Z,54.57
2019-05-18T01:31:48.578Z,55.30
2019-05-18T01:34:17.203Z,52.50
2019-05-18T01:36:45.772Z,61.50
2019-05-18T01:39:14.637Z,67.90
2019-05-18T01:41:43.191Z,88.03
2019-05-18T01:44:11.676Z,118.87
2019-05-18T01:46:41.035Z,110.03
2019-05-18T01:49:09.646Z,120.50
2019-05-18T01:51:38.132Z,97.43
2019-05-18T01:54:06.616Z,84.03
2019-05-18T01:56:35.235Z,69.83
2019-05-18T01:59:03.654Z,67.63
2019-05-18T02:01:33.098Z,87.93
2019-05-18T02:04:01.657Z,81.03
2019-05-18T02:06:30.142Z,91.70
2019-05-18T02:08:58.571Z,80.00
2019-05-18T02:11:27.127Z,103.17
2019-05-18T02:13:55.633Z,115.07
2019-05-18T02:16:24.111Z,114.60
2019-05-18T02:18:52.655Z,128.00
2019-05-18T02:21:21.236Z,133.90
2019-05-18T02:23:49.799Z,96.63
2019-05-18T02:26:18.290Z,102.13
2019-05-18T02:28:46.936Z,96.63
2019-05-18T02:31:15.450Z,55.00
2019-05-18T02:33:44.041Z,62.93
2019-05-18T02:36:12.539Z,54.37
2019-05-18T02:38:41.091Z,48.97
2019-05-18T02:41:09.702Z,55.70
2019-05-18T02:43:38.261Z,49.17
2019-05-18T02:46:06.831Z,47.90
2019-05-18T02:48:48.563Z,45.00
2019-05-18T02:51:05.514Z,57.43
2019-05-18T02:53:34.049Z,50.10
2019-05-18T02:56:02.722Z,57.83
2019-05-18T02:58:31.248Z,50.33
2019-05-18T03:00:59.831Z,48.30
2019-05-18T03:03:29.414Z,46.30
2019-05-18T03:05:57.906Z,50.67
2019-05-18T03:08:26.379Z,48.90
2019-05-18T03:10:55.009Z,49.00
2019-05-18T03:13:23.548Z,57.57
2019-05-18T03:15:51.990Z,45.10
2019-05-18T03:18:20.677Z,53.10
2019-05-18T03:20:49.158Z,46.23
2019-05-18T03:23:17.803Z,57.90
2019-05-18T03:25:46.441Z,52.10
2019-05-18T03:28:15.073Z,53.53
2019-05-18T03:30:43.624Z,48.50
2019-05-18T03:33:12.189Z,52.17
2019-05-18T03:35:40.623Z,51.87
2019-05-18T03:38:09.126Z,50.20
2019-05-18T03:40:37.665Z,50.53
2019-05-18T03:43:06.148Z,46.70
2019-05-18T03:45:34.629Z,54.57
2019-05-18T03:48:03.178Z,51.30
2019-05-18T03:50:31.589Z,45.60
2019-05-18T03:53:00.083Z,51.70
2019-05-18T03:55:28.764Z,51.60
2019-05-18T03:57:57.312Z,56.53
2019-05-18T04:00:25.895Z,50.00
2019-05-18T04:02:54.534Z,53.67
2019-05-18T04:05:23.976Z,49.87
2019-05-18T04:07:52.490Z,60.43
2019-05-18T04:10:26.884Z,51.33
2019-05-18T04:12:55.432Z,51.40
2019-05-18T04:15:23.843Z,42.77
2019-05-18T04:17:52.409Z,51.80
2019-05-18T04:20:20.869Z,44.33
2019-05-18T04:22:49.354Z,47.90
2019-05-18T04:25:17.857Z,49.50
2019-05-18T04:27:46.405Z,54.17
2019-05-18T04:30:14.966Z,53.20
2019-05-18T04:32:43.463Z,46.37
2019-05-18T04:35:11.999Z,51.07
2019-05-18T04:37:40.486Z,45.63
2019-05-18T04:40:09.447Z,54.17
2019-05-18T04:42:37.951Z,45.57
2019-05-18T04:45:06.922Z,41.70
2019-05-18T04:47:35.549Z,274.83
2019-05-18T04:50:06.488Z,267.23
2019-05-18T04:52:35.134Z,263.27
2019-05-18T04:55:04.202Z,233.33
2019-05-18T04:57:32.663Z,261.97
2019-05-18T05:00:01.214Z,266.13
2019-05-18T05:02:29.669Z,266.03
2019-05-18T05:04:58.342Z,280.97
2019-05-18T05:07:27.789Z,262.53
2019-05-18T05:09:56.228Z,259.93
2019-05-18T05:12:24.807Z,271.80
2019-05-18T05:14:53.237Z,261.20
2019-05-18T05:17:21.878Z,262.00
2019-05-18T05:19:50.458Z,260.07
2019-05-18T05:22:19.030Z,253.97
2019-05-18T05:24:47.676Z,256.23
2019-05-18T05:27:16.107Z,259.10
2019-05-18T05:29:44.744Z,256.70
2019-05-18T05:32:13.387Z,257.20
2019-05-18T05:34:41.968Z,260.13
2019-05-18T05:37:10.497Z,269.43
2019-05-18T05:39:39.213Z,262.60
2019-05-18T05:42:07.697Z,258.17
2019-05-18T05:44:36.309Z,264.97
2019-05-18T05:47:04.809Z,261.03
2019-05-18T05:49:33.366Z,254.77
2019-05-18T05:52:01.930Z,262.63
2019-05-18T05:54:30.558Z,259.30
2019-05-18T05:56:59.112Z,270.57
2019-05-18T05:59:27.643Z,255.60
2019-05-18T06:01:56.275Z,279.23
2019-05-18T06:04:24.813Z,256.30
2019-05-18T06:06:53.341Z,265.43
2019-05-18T06:09:22.857Z,255.17
2019-05-18T06:11:51.337Z,259.27
2019-05-18T06:14:19.875Z,255.87
2019-05-18T06:16:48.465Z,255.27
2019-05-18T06:19:17.035Z,256.43
2019-05-18T06:21:45.597Z,237.53
2019-05-18T06:24:14.154Z,215.83
2019-05-18T06:26:42.638Z,162.00
2019-05-18T06:29:11.207Z,124.67
2019-05-18T06:31:39.741Z,152.43
2019-05-18T06:34:08.333Z,143.00
2019-05-18T06:36:36.870Z,99.57
2019-05-18T06:39:07.113Z,107.50
2019-05-18T06:41:35.608Z,49.70
2019-05-18T06:44:04.555Z,91.07
2019-05-18T06:46:33.035Z,122.10
2019-05-18T06:49:01.545Z,101.83
2019-05-18T06:51:30.169Z,151.27
2019-05-18T06:53:58.710Z,93.20
2019-05-18T06:56:27.374Z,58.03
2019-05-18T06:58:55.855Z,43.83
2019-05-18T07:01:24.466Z,96.10
2019-05-18T07:03:53.063Z,47.57
2019-05-18T07:06:21.593Z,37.73
2019-05-18T07:08:50.303Z,39.47
2019-05-18T07:11:19.904Z,37.40
2019-05-18T07:13:48.495Z,36.77
2019-05-18T07:16:17.019Z,44.50
2019-05-18T07:18:45.597Z,40.63
2019-05-18T07:21:21.762Z,42.03
2019-05-18T07:23:44.591Z,41.37
2019-05-18T07:26:13.145Z,43.77
2019-05-18T07:28:41.873Z,39.73
2019-05-18T07:31:10.449Z,29.77
2019-05-18T07:33:39.109Z,42.70
2019-05-18T07:36:07.663Z,41.00
2019-05-18T07:38:36.329Z,37.57
2019-05-18T07:41:04.935Z,37.35
2019-05-18T07:43:33.577Z,40.33
2019-05-18T07:46:02.147Z,37.80
2019-05-18T07:48:30.721Z,36.20
2019-05-18T07:50:59.287Z,39.07
2019-05-18T07:53:27.879Z,39.53
2019-05-18T07:55:56.370Z,41.40
2019-05-18T07:58:24.991Z,34.63
2019-05-18T08:00:53.548Z,30.12
2019-05-18T08:03:22.182Z,32.38
2019-05-18T08:05:50.778Z,36.65
2019-05-18T08:08:19.287Z,30.77
2019-05-18T08:10:47.827Z,32.03
2019-05-18T08:13:17.416Z,30.20
2019-05-18T08:15:45.999Z,30.62
2019-05-18T08:18:14.652Z,34.90
2019-05-18T08:20:43.175Z,27.95
2019-05-18T08:23:11.725Z,29.35
2019-05-18T08:25:40.288Z,28.47
2019-05-18T08:28:08.758Z,32.80
2019-05-18T08:30:37.319Z,31.67
2019-05-18T08:33:05.851Z,27.30
2019-05-18T08:35:34.351Z,26.87
2019-05-18T08:38:02.814Z,28.02
2019-05-18T08:40:31.469Z,24.37
2019-05-18T08:42:59.957Z,33.95
2019-05-18T08:45:28.449Z,21.62
2019-05-18T08:47:57.063Z,19.73
2019-05-18T08:50:25.544Z,22.52
2019-05-18T08:52:54.105Z,15.20
2019-05-18T08:55:22.591Z,20.48
2019-05-18T08:57:51.088Z,20.48
2019-05-18T09:00:19.680Z,19.85
2019-05-18T09:02:48.238Z,15.68
2019-05-18T09:05:16.729Z,18.48
2019-05-18T09:07:45.236Z,15.78
2019-05-18T09:10:14.803Z,16.87
2019-05-18T09:12:43.319Z,14.85
2019-05-18T09:15:12.778Z,12.53
2019-05-18T09:17:42.292Z,14.43
2019-05-18T09:20:10.739Z,14.93
2019-05-18T09:22:39.307Z,16.10
2019-05-18T09:25:09.149Z,16.67
2019-05-18T09:27:37.721Z,14.63
2019-05-18T09:30:07.356Z,11.95
2019-05-18T09:32:36.031Z,17.70
2019-05-18T09:35:06.462Z,13.30
2019-05-18T09:37:34.951Z,15.98
2019-05-18T09:40:05.627Z,17.20
2019-05-18T09:42:34.078Z,15.00
2019-05-18T09:45:02.633Z,16.15
2019-05-18T09:47:31.183Z,18.35
2019-05-18T09:49:59.677Z,17.02
2019-05-18T09:52:44.137Z,13.70
2019-05-18T09:54:58.324Z,17.90
2019-05-18T09:57:26.728Z,17.87
2019-05-18T09:59:55.209Z,15.05
2019-05-18T10:02:23.687Z,17.12
2019-05-18T10:04:52.695Z,22.13
2019-05-18T10:07:21.113Z,18.30
2019-05-18T10:09:49.752Z,16.90
2019-05-18T10:12:18.363Z,16.67
2019-05-18T10:14:46.860Z,11.80
2019-05-18T10:17:16.422Z,13.68
2019-05-18T10:19:44.901Z,14.73
2019-05-18T10:22:13.392Z,12.73
2019-05-18T10:24:42.068Z,11.25
2019-05-18T10:27:10.545Z,13.80
2019-05-18T10:29:39.044Z,10.53
2019-05-18T10:32:07.673Z,11.70
2019-05-18T10:34:36.077Z,14.05
2019-05-18T10:37:04.557Z,16.07
2019-05-18T10:39:33.159Z,13.28
2019-05-18T10:42:01.654Z,12.58
2019-05-18T10:44:30.151Z,19.00
2019-05-18T10:46:58.752Z,12.33
2019-05-18T10:49:27.310Z,16.90
2019-05-18T10:51:55.811Z,16.57
2019-05-18T10:54:24.445Z,14.80
2019-05-18T10:56:53.041Z,16.12
2019-05-18T10:59:21.448Z,17.23
2019-05-18T11:01:49.981Z,9.58
2019-05-18T11:04:18.458Z,13.48
2019-05-18T11:06:47.017Z,8.00
2019-05-18T11:09:15.553Z,15.40
2019-05-18T11:11:44.103Z,12.15
2019-05-18T11:14:12.598Z,12.45
2019-05-18T11:16:41.273Z,14.73
2019-05-18T11:19:10.624Z,13.40
2019-05-18T11:21:40.761Z,13.98
2019-05-18T11:24:09.344Z,14.78
2019-05-18T11:26:37.898Z,15.70
2019-05-18T11:29:06.475Z,14.05
2019-05-18T11:31:34.960Z,15.68
2019-05-18T11:34:03.451Z,14.50
2019-05-18T11:36:32.020Z,15.98
2019-05-18T11:39:00.821Z,16.32
2019-05-18T11:41:29.307Z,16.95
2019-05-18T11:43:57.875Z,17.40
2019-05-18T11:46:26.690Z,20.23
2019-05-18T11:48:55.250Z,17.98
2019-05-18T11:51:23.822Z,16.12
2019-05-18T11:53:58.460Z,17.05
2019-05-18T11:56:22.679Z,17.42
2019-05-18T11:58:51.677Z,19.80
2019-05-18T12:01:20.356Z,17.57
2019-05-18T12:03:48.850Z,22.07
2019-05-18T12:06:17.439Z,16.85
2019-05-18T12:08:45.987Z,19.95
2019-05-18T12:11:15.128Z,16.42
2019-05-18T12:13:43.876Z,14.33
2019-05-18T12:16:12.543Z,18.55
2019-05-18T12:18:41.189Z,12.37
2019-05-18T12:21:10.862Z,13.28
2019-05-18T12:23:39.521Z,10.40
2019-05-18T12:26:08.157Z,9.50
2019-05-18T12:28:36.708Z,14.87
2019-05-18T12:31:05.238Z,16.07
2019-05-18T12:33:33.783Z,14.80
2019-05-18T12:36:02.408Z,15.85
2019-05-18T12:38:30.890Z,14.63
2019-05-18T12:40:59.435Z,9.88
2019-05-18T12:43:28.097Z,32.60
2019-05-18T12:45:56.576Z,11.75
2019-05-18T12:48:25.127Z,10.75
2019-05-18T12:50:53.804Z,13.98
2019-05-18T12:53:22.380Z,10.25
2019-05-18T12:55:50.960Z,13.60
2019-05-18T12:58:19.490Z,8.45
2019-05-18T13:00:47.984Z,12.40
2019-05-18T13:03:16.467Z,8.80
2019-05-18T13:05:45.006Z,8.80
2019-05-18T13:08:13.495Z,12.90
2019-05-18T13:10:41.966Z,15.70
2019-05-18T13:13:10.943Z,12.85
2019-05-18T13:15:39.490Z,10.70
2019-05-18T13:18:07.973Z,11.10
2019-05-18T13:20:36.459Z,10.03
2019-05-18T13:23:05.917Z,11.95
2019-05-18T13:25:34.417Z,9.43
2019-05-18T13:28:02.933Z,8.75
2019-05-18T13:30:31.317Z,8.35
2019-05-18T13:32:59.881Z,7.53
2019-05-18T13:35:28.385Z,10.23
2019-05-18T13:37:56.897Z,8.28
2019-05-18T13:40:25.609Z,9.73
2019-05-18T13:42:54.223Z,9.60
2019-05-18T13:45:22.961Z,10.88
2019-05-18T13:47:51.625Z,8.53
2019-05-18T13:50:20.234Z,9.68
2019-05-18T13:52:48.732Z,6.70
2019-05-18T13:55:17.367Z,11.50
2019-05-18T13:57:45.943Z,10.53
2019-05-18T14:00:16.077Z,9.53
2019-05-18T14:02:44.682Z,11.33
2019-05-18T14:05:13.243Z,10.00
2019-05-18T14:07:41.647Z,8.70
2019-05-18T14:10:12.461Z,11.50
2019-05-18T14:12:40.470Z,11.50
2019-05-18T14:15:09.023Z,11.43
2019-05-18T14:17:37.569Z,11.70
2019-05-18T14:20:06.132Z,8.55
2019-05-18T14:22:34.530Z,7.05
2019-05-18T14:25:18.846Z,9.35
2019-05-18T14:27:36.196Z,10.08
2019-05-18T14:30:06.010Z,9.98
2019-05-18T14:32:34.501Z,7.42
2019-05-18T14:35:02.997Z,9.75
2019-05-18T14:37:31.533Z,6.47
2019-05-18T14:40:00.037Z,5.85
2019-05-18T14:42:28.625Z,6.40
2019-05-18T14:44:57.218Z,7.80
2019-05-18T14:47:27.575Z,10.53
2019-05-18T14:49:55.862Z,9.88
2019-05-18T14:52:24.620Z,8.90
2019-05-18T14:54:53.187Z,5.60
2019-05-18T14:57:23.678Z,6.62
2019-05-18T14:59:51.966Z,8.05
2019-05-18T15:02:20.447Z,7.17
2019-05-18T15:04:48.875Z,8.15
2019-05-18T15:07:17.377Z,7.22
2019-05-18T15:09:46.251Z,5.95
2019-05-18T15:12:15.163Z,7.20
2019-05-18T15:14:43.726Z,5.75
2019-05-18T15:17:12.269Z,8.60
2019-05-18T15:19:40.814Z,8.33
2019-05-18T15:22:09.428Z,7.62
2019-05-18T15:24:37.921Z,7.72
2019-05-18T15:27:07.315Z,7.17
2019-05-18T15:29:35.956Z,5.75
2019-05-18T15:32:04.500Z,8.48
2019-05-18T15:34:32.867Z,5.92
2019-05-18T15:37:01.542Z,6.17
2019-05-18T15:39:29.981Z,6.10
2019-05-18T15:41:58.557Z,6.72
2019-05-18T15:44:27.102Z,5.75
2019-05-18T15:46:55.682Z,7.62
2019-05-18T15:49:24.297Z,7.10
2019-05-18T15:51:53.072Z,9.65
2019-05-18T15:54:21.660Z,10.13
2019-05-18T15:56:50.337Z,6.05
2019-05-18T15:59:18.985Z,5.83
2019-05-18T16:01:47.672Z,6.00
2019-05-18T16:04:16.246Z,5.85
2019-05-18T16:06:44.880Z,6.97
2019-05-18T16:09:13.365Z,8.40
2019-05-18T16:11:41.941Z,8.83
2019-05-18T16:14:10.562Z,5.87
2019-05-18T16:16:39.187Z,8.03
2019-05-18T16:19:07.816Z,6.58
2019-05-18T16:21:36.523Z,8.45
2019-05-18T16:24:05.082Z,5.90
2019-05-18T16:26:33.770Z,6.50
2019-05-18T16:29:03.257Z,5.97
2019-05-18T16:31:31.747Z,7.28
2019-05-18T16:34:00.311Z,5.92
2019-05-18T16:36:28.861Z,5.45
2019-05-18T16:38:57.551Z,6.08
2019-05-18T16:41:28.041Z,5.87
2019-05-18T16:43:56.409Z,6.05
2019-05-18T16:46:24.946Z,5.30
2019-05-18T16:48:53.647Z,6.87
2019-05-18T16:51:22.219Z,6.10
2019-05-18T16:53:50.782Z,5.97
2019-05-18T16:56:19.437Z,5.75
2019-05-18T16:58:48.068Z,5.75
2019-05-18T17:01:16.636Z,8.73
2019-05-18T17:03:45.112Z,6.17
2019-05-18T17:06:16.386Z,6.20
2019-05-18T17:08:44.131Z,5.85
2019-05-18T17:11:12.802Z,7.15
2019-05-18T17:13:41.403Z,6.80
2019-05-18T17:16:09.952Z,12.63
2019-05-18T17:18:38.430Z,11.93
2019-05-18T17:21:06.978Z,23.05
2019-05-18T17:23:35.666Z,9.75
2019-05-18T17:26:04.313Z,9.75
2019-05-18T17:28:32.878Z,11.65
2019-05-18T17:31:02.453Z,12.20
2019-05-18T17:33:30.999Z,242.90
2019-05-18T17:36:00.704Z,254.10
2019-05-18T17:38:29.424Z,242.07
2019-05-18T17:40:57.973Z,265.55
2019-05-18T17:43:26.566Z,277.13
2019-05-18T17:45:55.060Z,273.13
2019-05-18T17:48:23.635Z,255.40
2019-05-18T17:50:52.263Z,257.87
2019-05-18T17:53:20.797Z,252.03
2019-05-18T17:55:49.394Z,254.10
2019-05-18T17:58:17.988Z,249.88
2019-05-18T18:00:46.551Z,281.65
2019-05-18T18:03:15.208Z,255.05
2019-05-18T18:05:43.851Z,256.80
2019-05-18T18:08:12.411Z,257.55
2019-05-18T18:10:41.035Z,254.57
2019-05-18T18:13:09.703Z,256.15
2019-05-18T18:15:38.403Z,256.98
2019-05-18T18:18:06.956Z,255.72
2019-05-18T18:20:37.161Z,251.32
2019-05-18T18:23:06.127Z,253.90
2019-05-18T18:25:34.775Z,257.40
2019-05-18T18:28:03.281Z,270.27
2019-05-18T18:30:31.924Z,268.77
2019-05-18T18:33:01.435Z,250.83
2019-05-18T18:35:30.031Z,253.87
2019-05-18T18:37:58.591Z,258.30
2019-05-18T18:40:27.277Z,252.90
2019-05-18T18:42:55.855Z,256.90
2019-05-18T18:45:24.383Z,250.07
2019-05-18T18:47:53.020Z,253.60
2019-05-18T18:50:21.604Z,242.40
2019-05-18T18:52:50.235Z,250.90
2019-05-18T18:55:18.971Z,244.37
2019-05-18T18:57:47.501Z,244.13
2019-05-18T19:00:17.718Z,287.27
2019-05-18T19:02:46.286Z,259.37
2019-05-18T19:05:14.780Z,273.43
2019-05-18T19:07:43.374Z,273.57
2019-05-18T19:10:11.992Z,257.07
2019-05-18T19:12:40.547Z,255.77
2019-05-18T19:15:09.236Z,251.47
2019-05-18T19:17:37.950Z,265.23
2019-05-18T19:20:06.866Z,255.53
2019-05-18T19:22:35.388Z,262.00
2019-05-18T19:25:04.141Z,255.93
2019-05-18T19:27:32.770Z,259.30
2019-05-18T19:30:01.346Z,260.50
2019-05-18T19:32:29.824Z,264.87
2019-05-18T19:34:59.623Z,281.33
2019-05-18T19:37:28.137Z,256.63
2019-05-18T19:39:56.882Z,255.80
2019-05-18T19:42:25.601Z,251.57
2019-05-18T19:44:54.018Z,238.50
2019-05-18T19:47:22.955Z,208.60
2019-05-18T19:49:51.709Z,224.07
2019-05-18T19:52:20.269Z,231.43
2019-05-18T19:54:48.624Z,250.90
2019-05-18T19:57:17.143Z,235.47
2019-05-18T19:59:45.852Z,244.73
2019-05-18T20:02:18.211Z,240.60
2019-05-18T20:05:03.932Z,316.50
2019-05-18T20:07:14.875Z,219.73
2019-05-18T20:09:43.447Z,231.30
2019-05-18T20:12:12.092Z,232.80
2019-05-18T20:14:40.663Z,263.00
2019-05-18T20:17:09.600Z,259.60
2019-05-18T20:19:39.658Z,264.40
2019-05-18T20:22:08.707Z,253.47
2019-05-18T20:24:37.168Z,252.97
2019-05-18T20:27:05.732Z,256.57
2019-05-18T20:29:36.370Z,259.33
2019-05-18T20:32:04.630Z,261.00
2019-05-18T20:34:32.891Z,261.37
2019-05-18T20:37:02.403Z,258.77
2019-05-18T20:39:30.700Z,256.63
2019-05-18T20:41:59.212Z,246.57
2019-05-18T20:44:27.762Z,255.20
2019-05-18T20:46:56.334Z,251.83
2019-05-18T20:49:24.959Z,274.47
2019-05-18T20:51:53.664Z,256.00
2019-05-18T20:54:21.912Z,245.47
2019-05-18T20:56:50.451Z,255.10
2019-05-18T20:59:19.082Z,261.60
2019-05-18T21:01:47.509Z,255.97
2019-05-18T21:04:16.016Z,261.43
2019-05-18T21:06:45.569Z,258.57
2019-05-18T21:09:14.108Z,263.40
2019-05-18T21:11:42.710Z,256.27
2019-05-18T21:14:11.466Z,268.70
2019-05-18T21:16:40.305Z,261.63
2019-05-18T21:19:08.868Z,273.30
2019-05-18T21:21:37.389Z,258.93
2019-05-18T21:24:05.892Z,275.93
2019-05-18T21:26:34.491Z,261.07
2019-05-18T21:29:03.066Z,258.43
2019-05-18T21:31:32.253Z,259.03
2019-05-18T21:34:00.806Z,271.33
2019-05-18T21:36:29.221Z,266.93
2019-05-18T21:38:58.732Z,261.33
2019-05-18T21:41:29.555Z,292.37
2019-05-18T21:43:57.782Z,261.40
2019-05-18T21:46:25.974Z,259.17
2019-05-18T21:48:54.281Z,248.87
2019-05-18T21:51:22.714Z,248.00
2019-05-18T21:53:51.136Z,250.37
2019-05-18T21:56:20.112Z,242.30
2019-05-18T21:58:49.045Z,269.80
2019-05-18T22:01:18.072Z,260.90
2019-05-18T22:03:48.310Z,244.37
2019-05-18T22:06:16.686Z,246.60
2019-05-18T22:08:45.105Z,240.67
2019-05-18T22:11:13.665Z,244.23
2019-05-18T22:13:42.090Z,246.47
2019-05-18T22:16:10.538Z,236.17
2019-05-18T22:18:39.134Z,235.20
2019-05-18T22:21:07.772Z,236.80
2019-05-18T22:23:36.274Z,245.33
2019-05-18T22:26:04.513Z,240.20
2019-05-18T22:28:32.938Z,245.53
2019-05-18T22:31:01.194Z,242.10
2019-05-18T22:33:29.697Z,234.90
2019-05-18T22:35:57.950Z,234.83
2019-05-18T22:38:26.438Z,238.63
2019-05-18T22:40:56.013Z,231.10
2019-05-18T22:43:24.336Z,246.03
2019-05-18T22:45:52.826Z,244.07
2019-05-18T22:48:21.454Z,242.33
2019-05-18T22:50:49.875Z,242.10
2019-05-18T22:53:18.321Z,250.47
2019-05-18T22:55:46.899Z,244.60
2019-05-18T22:58:15.315Z,240.27
2019-05-18T23:00:44.212Z,248.13
2019-05-18T23:03:12.770Z,246.97
2019-05-18T23:05:41.348Z,239.50
2019-05-18T23:08:09.867Z,247.83
2019-05-18T23:10:38.358Z,247.40
2019-05-18T23:13:06.932Z,247.07
2019-05-18T23:15:36.067Z,259.57
2019-05-18T23:18:04.651Z,245.70
2019-05-18T23:20:33.133Z,253.47
2019-05-18T23:23:01.656Z,248.73
2019-05-18T23:25:30.191Z,250.30
2019-05-18T23:27:58.772Z,249.00
2019-05-18T23:30:28.323Z,256.30
2019-05-18T23:32:56.768Z,247.70
2019-05-18T23:35:25.261Z,251.33
2019-05-18T23:37:53.703Z,251.37
2019-05-18T23:40:23.821Z,247.33
2019-05-18T23:42:53.185Z,249.57
2019-05-18T23:45:24.784Z,245.63
2019-05-18T23:47:53.262Z,257.40
2019-05-18T23:50:21.745Z,246.07
2019-05-18T23:52:50.225Z,243.97
2019-05-18T23:55:18.713Z,244.40
2019-05-18T23:57:47.217Z,249.30
